Statistiken

Seite 124 von 241 |< · · [121] [122] [123] [124] [125] [126] [127] · · >|

Die neuesten Witze

Nr. Witz Pkte. Bew. Aufr. Mails Kom. Datum
6151 Alle Kinder verließen das E-Werk, nur nicht ... 0.2683 41 1645 0 0 07.07.05 12:00
6152 Lieber eine lange Leitung, als einen Kurzen in der Hose. ... 0.2683 41 1502 0 0 07.07.05 12:00
6153 PONTIAC: Polizeiautos ohne neuen TÜV initiieren Autocrashs ... 0.2683 41 1483 0 0 07.07.05 12:00
6154 Gäste werden auf dem Klo nicht alt, lässt ... 0.2683 41 1442 0 0 07.07.05 12:00
6155 Wenn du hier hochguckst, pinkelst du dir auf den Schuh. ... 0.2683 41 1416 0 0 07.07.05 12:00
6156 Im Falle des Durchfalls ist Tempo wirklich alles. ... 0.2683 41 1298 0 0 07.07.05 12:00
6157 Fotze lecken das ist fein, doch es muss im ... 0.2682 343 16038 18 2 07.07.05 12:00
6158 Die drei Etappen des Erwachsenwerdens eines ... 0.2676 426 11319 28 25 07.07.05 12:00
6159 Wie lautet die enharmonische Verwechslung ... 0.2676 71 2787 2 2 07.07.05 12:00
6160 Warum ist in der Badewanne einer Blondine ... 0.2676 71 1994 2 0 07.07.05 12:00
6161 Was war dein schönstes Erlebnis im Skiurlaub?" ... 0.2674 86 1808 1 0 07.07.05 12:00
6162 "Hast du was gegen Ausländer?" - "Wie, gibt ... 0.2673 101 3675 1 0 07.07.05 12:00
6163 Was heißt Viagra auf wienerisch? - Würstelstand. ... 0.2673 101 2146 3 0 07.07.05 12:00
6164 Was sagt eine Blondine, wenn ein Vogel seine ... 0.2672 116 2172 5 0 07.07.05 12:00
6165 "Hey, toller Benz, Mensch, wie hast du denn ... 0.2667 135 2523 3 2 07.07.05 12:00
6166 Ein Mantafahrer fährt rückwärts einen Berg ... 0.2667 105 3242 4 2 07.07.05 12:00
6167 Im französischen Feinschmeckerrestaurant: ... 0.2667 60 1828 1 0 07.07.05 12:00
6168 Er war Sportlehrer, aber sie kam schneller. ... 0.2667 60 1827 2 0 07.07.05 12:00
6169 Wie kann Mercedes die A-Klasse überhaupt ... 0.2667 60 1666 1 0 07.07.05 12:00
6170 Lieber arm dran, als Arm ab. ... 0.2667 45 2093 0 0 07.07.05 12:00
6171 Warum sind Manta-Fahrer seit August 1990 ... 0.2667 45 1886 0 0 07.07.05 12:00
6172 Wer schon die Übersicht verloren hat, sollte ... 0.2667 45 1879 0 1 07.07.05 12:00
6173 Für das große Chaos haben wir Computer. Die ... 0.2667 45 1869 0 0 07.07.05 12:00
6174 Alle Kinder bekommen ein Knöllchen, nur nicht ... 0.2667 45 1856 0 0 07.07.05 12:00
6175 Letze Worte des Computer-Freaks: "Hätte ich ... 0.2667 45 1804 0 0 07.07.05 12:00
6176 Woran erkennt man einen Mantafahrer in der ... 0.2667 45 1655 0 0 07.07.05 12:00
6177 Auf dem Mars gibt es Wasser und sehr viele ... 0.2667 45 1647 0 0 07.07.05 12:00
6178 Letze Worte von Tarzan: "Welcher Idiot hat ... 0.2667 45 1588 0 0 07.07.05 12:00
6179 Warum fahren Mantafahrer keinen Scirocco? ... 0.2667 45 1535 0 0 07.07.05 12:00
6180 Alle Kinder bremsten vor dem Bahndamm, nur ... 0.2667 45 1526 0 0 07.07.05 12:00
6181 FIAT: Flick ihn alle Tage ... 0.2667 45 1421 0 0 07.07.05 12:00
6182 In Winkeln ist gut pinkeln ... 0.2667 45 1295 0 0 07.07.05 12:00
6183 WEGA: Wieder ein Gerät ausgefallen ... 0.2667 45 1294 0 0 07.07.05 12:00
6184 AOK: Alle oder keiner ... 0.2667 45 1272 0 0 07.07.05 12:00
6185 Letze Worte der Prostituierten: "Ist der aber niedlich." ... 0.2667 45 1256 0 0 07.07.05 12:00
6186 Nudeltunker ... 0.2667 30 1437 0 0 07.07.05 12:00
6187 Lieber die Frau des Freundes kennen, als ... 0.2667 30 1345 0 0 07.07.05 12:00
6188 Lieber intim, als in petto. ... 0.2667 30 1284 0 0 07.07.05 12:00
6189 Lieber eine Mieze im Fond, als den Tiger im Tank. ... 0.2667 30 1245 0 0 07.07.05 12:00
6190 Bodenturner ... 0.2667 30 1237 0 0 07.07.05 12:00
6191 Lieber eine Sauklaue, als einen Klumpfuss. ... 0.2667 30 1236 0 0 07.07.05 12:00
6192 Orgasmusglauber ... 0.2667 30 1228 0 0 07.07.05 12:00
6193 Fettaugen-aus-der-Suppe-Löffler ... 0.2667 30 1218 0 0 07.07.05 12:00
6194 Lavendelpflücker ... 0.2667 30 1215 0 0 07.07.05 12:00
6195 Heimatromanleser ... 0.2667 30 1204 0 0 07.07.05 12:00
6196 Preisausschreibengewinn-Reisender ... 0.2667 30 1199 0 0 07.07.05 12:00
6197 Bei-geschlossenem-Fenster-Autofahrer ... 0.2667 30 1197 0 0 07.07.05 12:00
6198 Eincremer ... 0.2667 30 1194 0 0 07.07.05 12:00
6199 Müllbeutelwiederverwender ... 0.2667 30 1189 0 0 07.07.05 12:00
6200 Kirschentkerner ... 0.2667 30 1187 0 0 07.07.05 12:00

[Favoriten] [Punkte] [Bewertungen] [Aufrufe] [Mails] [Kommentare] [Datum]

Seite 124 von 241 |< · < · [1] [2] [3] [4] [5] [6] [7] [8] [9] [10] [11] [12] [13] [14] [15] [16] [17] [18] [19] [20] [21] [22] [23] [24] [25] [26] [27] [28] [29] [30] [31] [32] [33] [34] [35] [36] [37] [38] [39] [40] [41] [42] [43] [44] [45] [46] [47] [48] [49] [50] [51] [52] [53] [54] [55] [56] [57] [58] [59] [60] [61] [62] [63] [64] [65] [66] [67] [68] [69] [70] [71] [72] [73] [74] [75] [76] [77] [78] [79] [80] [81] [82] [83] [84] [85] [86] [87] [88] [89] [90] [91] [92] [93] [94] [95] [96] [97] [98] [99] [100] [101] [102] [103] [104] [105] [106] [107] [108] [109] [110] [111] [112] [113] [114] [115] [116] [117] [118] [119] [120] [121] [122] [123] [124] [125] [126] [127] [128] [129] [130] [131] [132] [133] [134] [135] [136] [137] [138] [139] [140] [141] [142] [143] [144] [145] [146] [147] [148] [149] [150] [151] [152] [153] [154] [155] [156] [157] [158] [159] [160] [161] [162] [163] [164] [165] [166] [167] [168] [169] [170] [171] [172] [173] [174] [175] [176] [177] [178] [179] [180] [181] [182] [183] [184] [185] [186] [187] [188] [189] [190] [191] [192] [193] [194] [195] [196] [197] [198] [199] [200] [201] [202] [203] [204] [205] [206] [207] [208] [209] [210] [211] [212] [213] [214] [215] [216] [217] [218] [219] [220] [221] [222] [223] [224] [225] [226] [227] [228] [229] [230] [231] [232] [233] [234] [235] [236] [237] [238] [239] [240] [241] · > · >|

Zuletzt gesucht

Buchtipps

Englisch lernen mit Witzen.
Angelika Feilhauer
Englisch lernen mit Witzen.
EUR 4,95
X-tra starke Kinderwitze.
Nikolaus Lenz
X-tra starke Kinderwitze.
EUR 5,95
"In Mathe war ich immer schlec
Albrecht Beutelspacher
"In Mathe war ich immer schlecht...". Be
EUR 14,00